Skip Navigation Links
NOAA logo - Click to go to the NOAA homepage
NOAA's National Weather Service
Alaska Aviation Weather Unit
  NWS logo - Click to go to the NWS homepage
Left Navbar Graphic     23 AKDT = 07 GMT

   
NOAA is celebrating 200 years of science, service, and stewardship. Visit the NOAA 200th celebration Web site to learn more.
USA.gov is the U.S. Government's official Web portal to all Federal, state and local government Web resources and services.
Facebook
NWS on Facebook

Important Change Regarding the AAWU Web Presence

 

Over the last several months, the AAWU has been working to navigate its webpages to a nationally supported server. Security, as well as other needs, have necessitated the change.  In the process, we have made an effort to enhance the functionality of our website, as well as some of our products. As of June 20, 2017, aawu.arh.noaa.gov will be discontinued. The new AAWU web address is weather.gov/aawu. It is now live and will run in-parallel with the old site until it is discontinued. Please send any feedback or questions regarding the new webpages to nws.ar.aawu.webauthors@noaa.gov.  Thank you for your patience during this time of transition.
AAWU Home :: Display TAF Add Bookmark
METAR PAMB 240156Z AUTO 16011G17KT 9SM -RA BKN009 OVC028 07/06 A2990 RMK
     AO2 CIG 005V016 SLP133 P0002 T00720061 $=

SPECI PAMB 240236Z AUTO 16011KT 6SM -RA BR OVC005 07/07 A2989 RMK
 AO2 CIG 004V009 P0004 $=

METAR PAMB 240256Z AUTO 15009KT 5SM -RA BR OVC005 07/07 A2988 RMK AO2
     SLP124 P0006 60009 T00720067 58019 $=

METAR PAMB 240356Z AUTO 15013G16KT 5SM -RA BR OVC005 08/07 A2986 RMK AO2
     SLP116 P0009 T00780072 $=

SPECI PAMB 240527Z AUTO 20012G17KT 10SM -RA OVC007 07/07 A2982 RMK AO2
     P0001 $=

METAR PAMB 240556Z AUTO 20012G20KT 10SM -RA OVC007 07/06 A2982 RMK AO2
     SLP103 P0002 60029 T00670061 10078 20061 56020 $=

SPECI PAMB 240609Z AUTO 21012KT 2 1/2SM -RA BR OVC005 07/06 A2981 RMK
     AO2 CIG 004V007 P0001 $=

SPECI PAMB 240619Z AUTO 21014G19KT 5SM -RA BR OVC005 06/06 A2981 RMK
 AO2 P0001 $=

METAR PAMB 240656Z AUTO 21015G18KT 10SM -RA OVC005 06/06 A2981 RMK AO2
     SLP101 P0003 T00610056 $=


NOAA's National Weather Service
Alaska Aviation Weather Unit
6930 Sand Lake Road
Anchorage, AK 99502-1845
Disclaimer
Credits
Glossary
Privacy Policy
About Us
Career Opportunities
Contact AAWU Internet Services Site last modified: April, 17th 2012